Oxford, NC

2:09 PM EDT on June 22, 2017 (GMT -0400)
Henderson-Oxford

Weather History for KHNZ - January, 2012

Change the Weather History Date:

Sunday, January 1, 2012

  Actual Average (KTDF) Record (KTDF)
Temperature  
Mean Temperature 50 °F -  
Max Temperature 65 °F 51 °F 75 °F (2005)
Min Temperature 34 °F 30 °F 7 °F (1984)
Degree Days  
Heating Degree Days 16    
Moisture  
Dew Point 38 °F    
Average Humidity 69    
Maximum Humidity 94    
Minimum Humidity 30    
Precipitation  
Precipitation 0.07 in - - ()
Sea Level Pressure  
Sea Level Pressure 30.03 in    
Wind  
Wind Speed 5 mph (SSW)    
Max Wind Speed 22 mph    
Max Gust Speed 26 mph    
Visibility 10 miles    
Events Rain    
Averages and records for this station are not official NWS values.
T = Trace of Precipitation, MM = Missing Value Source: NWS Daily Summary

Daily Weather History Graph

Daily Weather History Graph

Search for Another Location

Airport or City:

Trip Planner

Search our weather history database for the weather conditions in past years. The results will help you decide how hot, cold, wet, or windy it might be!

Date:

Astronomy

Jan. 01, 2012 Rise Set
Actual Time 7:25 AM EST 5:09 PM EST
Civil Twilight 6:57 AM EST 5:38 PM EST
Nautical Twilight 6:24 AM EST 6:10 PM EST
Astronomical Twilight 5:53 AM EST 6:41 PM EST
Moon 11:51 AM EST (1/1) 12:25 AM EST (1/1)
Length of Visible Light 10h 41m
Length of Day
9h 43m
First Quarter, 54% of the Moon is Illuminated
Jan 1
First Quarter
Jan 9
Full
Jan 16
Last Quarter
Jan 23
New
Jan 30
First Quarter

Hourly Weather History & Observations

Time (EST) Temp. Windchill Dew Point Humidity Pressure Visibility Wind Dir Wind Speed Gust Speed Precip Events Conditions
12:15 AM 40.8 °F - 33.6 °F 76% 30.14 in 10.0 mi Calm Calm - N/A   Clear
12:35 AM 39.9 °F - 33.8 °F 79% 30.14 in 10.0 mi Calm Calm - N/A   Clear
12:55 AM 39.9 °F - 34.0 °F 79% 30.14 in 10.0 mi Calm Calm - N/A   Clear
1:15 AM 37.8 °F - 33.3 °F 84% 30.14 in 10.0 mi Calm Calm - N/A   Clear
1:35 AM 36.7 °F 34.1 °F 33.1 °F 87% 30.15 in 10.0 mi SSW 3.5 mph - N/A   Clear
1:55 AM 36.5 °F 32.7 °F 32.4 °F 85% 30.15 in 10.0 mi South 4.6 mph - N/A   Clear
2:15 AM 34.9 °F 30.8 °F 32.5 °F 91% 30.15 in 10.0 mi South 4.6 mph - N/A   Clear
2:35 AM 36.3 °F 33.7 °F 33.6 °F 90% 30.14 in 10.0 mi South 3.5 mph - N/A   Clear
2:55 AM 38.5 °F - 33.8 °F 83% 30.14 in 10.0 mi Calm Calm - N/A   Clear
3:15 AM 37.8 °F 35.3 °F 33.1 °F 83% 30.15 in 10.0 mi SSW 3.5 mph - N/A   Clear
3:35 AM 35.6 °F - 32.9 °F 90% 30.15 in 10.0 mi Calm Calm - N/A   Clear
3:55 AM 37.4 °F 34.9 °F 34.0 °F 87% 30.15 in 10.0 mi SW 3.5 mph - N/A   Clear
4:15 AM 38.1 °F 35.7 °F 34.0 °F 85% 30.15 in 10.0 mi SW 3.5 mph - N/A   Clear
4:35 AM 37.6 °F - 33.8 °F 86% 30.15 in 10.0 mi Calm Calm - N/A   Clear
4:55 AM 37.4 °F - 34.2 °F 88% 30.14 in 10.0 mi Calm Calm - N/A   Clear
5:15 AM 37.6 °F - 34.2 °F 87% 30.14 in 10.0 mi Calm Calm - N/A   Clear
5:35 AM 37.8 °F 35.3 °F 34.5 °F 88% 30.14 in 10.0 mi South 3.5 mph - N/A   Clear
5:55 AM 38.3 °F 34.8 °F 34.5 °F 86% 30.14 in 10.0 mi South 4.6 mph - N/A   Clear
6:15 AM 35.2 °F 30.3 °F 32.4 °F 89% 30.14 in 10.0 mi South 5.8 mph - N/A   Clear
6:35 AM 35.4 °F 30.5 °F 32.5 °F 89% 30.14 in 10.0 mi South 5.8 mph - N/A   Clear
6:55 AM 35.8 °F 31.9 °F 32.5 °F 88% 30.14 in 10.0 mi South 4.6 mph - N/A   Clear
7:15 AM 37.2 °F 34.7 °F 32.5 °F 83% 30.14 in 10.0 mi South 3.5 mph - N/A   Clear
7:35 AM 36.7 °F 32.0 °F 32.4 °F 84% 30.14 in 10.0 mi South 5.8 mph - N/A   Clear
7:55 AM 38.1 °F 33.7 °F 33.1 °F 82% 30.14 in 10.0 mi SSE 5.8 mph - N/A   Clear
8:15 AM 41.9 °F 38.2 °F 34.3 °F 75% 30.14 in 10.0 mi South 5.8 mph - N/A   Clear
8:35 AM 43.2 °F 39.0 °F 35.1 °F 73% 30.14 in 10.0 mi South 6.9 mph - N/A   Clear
8:55 AM 44.2 °F 39.7 °F 35.4 °F 71% 30.13 in 10.0 mi South 8.1 mph - N/A   Clear
9:15 AM 45.5 °F 40.8 °F 35.8 °F 69% 30.13 in 10.0 mi South 9.2 mph - N/A   Clear
9:35 AM 47.1 °F - 36.3 °F 66% 30.12 in 10.0 mi South 9.2 mph - N/A   Clear
9:55 AM 49.1 °F - 36.5 °F 62% 30.12 in 10.0 mi South 10.4 mph - N/A   Clear
10:15 AM 51.6 °F - 37.4 °F 58% 30.11 in 10.0 mi South 8.1 mph - N/A   Clear
10:35 AM 54.1 °F - 37.6 °F 54% 30.10 in 10.0 mi South 12.7 mph 20.7 mph N/A   Clear
10:55 AM 55.8 °F - 37.4 °F 50% 30.08 in 10.0 mi SSW 13.8 mph - N/A   Clear
11:15 AM 57.6 °F - 37.4 °F 47% 30.07 in 10.0 mi SSW 12.7 mph 18.4 mph N/A   Clear
11:35 AM 59.5 °F - 37.0 °F 43% 30.03 in 10.0 mi South 17.3 mph 23.0 mph N/A   Clear
11:55 AM 60.4 °F - 36.3 °F 41% 30.01 in 10.0 mi South 13.8 mph 26.5 mph N/A   Clear
12:15 PM 61.9 °F - 35.8 °F 38% 29.99 in 10.0 mi South 13.8 mph 24.2 mph N/A   Clear
12:55 PM 64.4 °F - 32.9 °F 31% 29.96 in 10.0 mi SSW 21.9 mph 26.5 mph N/A   Clear
1:15 PM 64.8 °F - 32.2 °F 30% 29.95 in 10.0 mi SSW 16.1 mph 26.5 mph N/A   Clear
1:35 PM 64.9 °F - 33.3 °F 31% 29.94 in 10.0 mi SSW 16.1 mph 23.0 mph N/A   Clear
1:55 PM 64.9 °F - 33.8 °F 31% 29.93 in 10.0 mi SSW 18.4 mph 25.3 mph N/A   Scattered Clouds
2:15 PM 64.0 °F - 34.5 °F 33% 29.91 in 10.0 mi SSW 16.1 mph 23.0 mph N/A   Overcast
2:35 PM 63.9 °F - 35.2 °F 35% 29.90 in 10.0 mi SSW 12.7 mph 18.4 mph N/A   Overcast
2:55 PM 64.2 °F - 36.3 °F 36% 29.88 in 10.0 mi South 15.0 mph 21.9 mph N/A   Scattered Clouds
3:15 PM 64.8 °F - 37.2 °F 36% 29.86 in 10.0 mi South 12.7 mph 25.3 mph N/A   Clear
3:35 PM 64.9 °F - 38.3 °F 37% 29.85 in 10.0 mi South 13.8 mph 23.0 mph N/A   Clear
4:15 PM 65.1 °F - 40.3 °F 40% 29.86 in 10.0 mi South 11.5 mph 20.7 mph N/A   Clear
4:35 PM 64.4 °F - 41.5 °F 43% 29.86 in 10.0 mi South 15.0 mph 25.3 mph N/A   Clear
4:55 PM 63.7 °F - 43.3 °F 48% 29.87 in 10.0 mi SW 13.8 mph 20.7 mph N/A   Mostly Cloudy
5:15 PM 63.5 °F - 44.1 °F 49% 29.88 in 10.0 mi SSW 15.0 mph 20.7 mph N/A   Overcast
5:35 PM 63.3 °F - 45.1 °F 52% 29.88 in 10.0 mi SSW 15.0 mph 18.4 mph N/A   Overcast
5:55 PM 63.3 °F - 45.9 °F 53% 29.90 in 10.0 mi West 8.1 mph - N/A   Overcast
6:15 PM 62.4 °F - 46.8 °F 57% 29.91 in 10.0 mi WNW 10.4 mph - N/A Rain Light Rain
6:35 PM 58.1 °F - 50.4 °F 75% 29.91 in 10.0 mi WSW 4.6 mph - 0.02 in Rain Light Rain
6:55 PM 55.8 °F - 51.8 °F 87% 29.91 in 7.0 mi SW 5.8 mph - 0.04 in Rain Rain
7:15 PM 55.4 °F - 52.7 °F 91% 29.91 in 7.0 mi SSW 3.5 mph - 0.03 in Rain Rain
7:35 PM 55.2 °F - 52.3 °F 90% 29.91 in 10.0 mi SSW 4.6 mph - 0.03 in   Overcast
7:55 PM 54.5 °F - 52.2 °F 92% 29.90 in 10.0 mi SSW 3.5 mph - 0.03 in   Overcast
8:15 PM 54.1 °F - 52.0 °F 92% 29.90 in 10.0 mi SSW 3.5 mph - N/A   Overcast
8:35 PM 54.0 °F - 52.3 °F 94% 29.90 in 7.0 mi SSW 3.5 mph - N/A   Overcast
8:55 PM 54.0 °F - 52.3 °F 94% 29.90 in 7.0 mi Calm Calm - N/A   Overcast
9:15 PM 54.1 °F - 52.3 °F 94% 29.90 in 7.0 mi Calm Calm - N/A   Mostly Cloudy
9:35 PM 54.0 °F - 51.8 °F 92% 29.90 in 10.0 mi West 3.5 mph - N/A   Overcast
10:15 PM 53.8 °F - 47.7 °F 80% 29.91 in 10.0 mi Calm Calm - N/A   Overcast
10:35 PM 53.6 °F - 45.5 °F 74% 29.92 in 10.0 mi WNW 6.9 mph - N/A   Overcast
11:15 PM 52.5 °F - 39.7 °F 62% 29.93 in 10.0 mi NW 6.9 mph - N/A   Overcast
11:35 PM 51.6 °F - 36.5 °F 56% 29.94 in 10.0 mi WNW 8.1 mph - N/A   Overcast
11:55 PM 50.7 °F - 32.7 °F 50% 29.95 in 10.0 mi WNW 6.9 mph - N/A   Overcast